Time;durP1;ratioP1;P1;durP2;ratioP2;P2;SDS_P1;SDS_P2;PMS_P1;PMS_P2;Temp;Humidity;BMP_temperature;BMP_pressure;BME280_temperature;BME280_humidity;BME280_pressure;Samples;Min_cycle;Max_cycle;Signal;HPM_P1;HPM_P2
2022/05/03 00:02:04;;;;;;;42.83;21.10;;;;;;;10.94;65.75;99739.09;4171137;28;20233;-65
2022/05/03 00:04:37;;;;;;;44.37;21.77;;;;;;;10.82;65.91;99743.06;4177619;28;21089;-68
2022/05/03 00:07:38;;;;;;;40.97;21.67;;;;;;;10.86;65.50;99733.72;4176350;28;20315;-67
2022/05/03 00:10:17;;;;;;;44.17;22.10;;;;;;;10.96;64.35;99738.94;4184851;28;20233;-66
2022/05/03 00:13:01;;;;;;;41.17;22.23;;;;;;;10.86;65.75;99736.38;4178811;28;20238;-67
2022/05/03 00:15:29;;;;;;;44.27;21.87;;;;;;;10.82;66.42;99735.06;4183805;28;20231;-66
2022/05/03 00:17:57;;;;;;;41.43;22.50;;;;;;;10.81;65.28;99740.56;4170238;28;21468;-65
2022/05/03 00:20:23;;;;;;;39.53;21.03;;;;;;;10.63;67.14;99736.22;4189458;28;20249;-66
2022/05/03 00:22:50;;;;;;;37.87;21.53;;;;;;;10.56;66.81;99735.19;4171987;28;22263;-67
2022/05/03 00:25:17;;;;;;;42.87;21.93;;;;;;;10.54;67.57;99731.84;4178387;28;20399;-66
2022/05/03 00:27:43;;;;;;;49.73;23.03;;;;;;;10.42;68.01;99733.97;4173847;28;21907;-66
2022/05/03 00:30:10;;;;;;;43.80;23.77;;;;;;;10.41;67.51;99726.97;4172362;28;20356;-66
2022/05/03 00:32:39;;;;;;;46.23;23.50;;;;;;;10.36;67.80;99734.63;4171456;28;21851;-67
2022/05/03 00:35:07;;;;;;;49.93;24.73;;;;;;;10.13;69.09;99735.16;4170107;28;21301;-67
2022/05/03 00:37:33;;;;;;;41.80;23.17;;;;;;;9.93;70.59;99745.19;4154996;28;20236;-67
2022/05/03 00:40:00;;;;;;;55.90;25.10;;;;;;;9.82;71.09;99747.28;4173692;28;22387;-66
2022/05/03 00:42:47;;;;;;;47.50;24.60;;;;;;;9.60;71.74;99744.16;4164884;28;20245;-66
2022/05/03 00:45:27;;;;;;;44.57;23.70;;;;;;;9.58;72.20;99743.50;4185070;28;20514;-67
2022/05/03 00:47:58;;;;;;;43.43;24.57;;;;;;;9.51;71.81;99745.09;4167509;28;20253;-66
2022/05/03 00:50:38;;;;;;;46.70;24.83;;;;;;;9.45;72.45;99743.06;4166108;28;20237;-65
2022/05/03 00:53:19;;;;;;;45.07;24.53;;;;;;;9.37;72.83;99737.69;4174818;28;20607;-65
2022/05/03 00:55:52;;;;;;;53.17;26.23;;;;;;;9.29;73.79;99736.66;4179392;28;23884;-67
2022/05/03 00:58:43;;;;;;;54.90;28.03;;;;;;;9.34;73.98;99737.97;4180144;28;21617;-67
2022/05/03 01:01:13;;;;;;;49.70;26.43;;;;;;;9.51;72.50;99737.13;4172079;28;21042;-66
2022/05/03 01:03:54;;;;;;;47.20;25.43;;;;;;;9.54;72.40;99731.50;4188070;28;20606;-66
2022/05/03 01:06:50;;;;;;;47.60;26.20;;;;;;;9.59;72.21;99726.56;4173960;28;20340;-65
2022/05/03 01:09:42;;;;;;;45.20;26.27;;;;;;;9.62;72.07;99734.22;4169621;28;20253;-66
2022/05/03 01:12:36;;;;;;;48.50;26.83;;;;;;;9.58;73.08;99730.22;4182070;28;20382;-66
2022/05/03 01:15:07;;;;;;;51.17;27.53;;;;;;;9.66;72.42;99721.44;4202112;28;21565;-68
2022/05/03 01:17:45;;;;;;;48.53;26.17;;;;;;;9.81;71.19;99732.31;4178573;28;20246;-66
2022/05/03 01:20:15;;;;;;;52.13;27.83;;;;;;;9.71;71.12;99714.66;4176659;28;21181;-65
2022/05/03 01:23:20;;;;;;;52.27;26.93;;;;;;;9.68;71.75;99725.63;4160976;28;20619;-69
2022/05/03 01:26:11;;;;;;;54.03;27.90;;;;;;;9.64;71.86;99718.94;4186271;28;22165;-67
2022/05/03 01:28:47;;;;;;;47.23;26.40;;;;;;;9.58;72.37;99722.25;4181249;28;20336;-67
2022/05/03 01:31:14;;;;;;;51.13;25.07;;;;;;;9.51;72.53;99724.69;4188265;28;23416;-67
2022/05/03 01:33:42;;;;;;;50.47;26.70;;;;;;;9.42;72.65;99725.63;4173702;28;20236;-65
2022/05/03 01:36:09;;;;;;;44.20;24.80;;;;;;;9.39;72.42;99725.94;4173428;28;20241;-67
2022/05/03 01:39:02;;;;;;;50.03;27.33;;;;;;;9.26;72.83;99723.66;4155167;28;20226;-65
2022/05/03 01:41:41;;;;;;;51.40;26.07;;;;;;;9.20;73.19;99726.94;4149921;28;21701;-68
2022/05/03 01:44:26;;;;;;;48.50;27.40;;;;;;;8.98;74.65;99735.38;4160071;28;20302;-66
2022/05/03 01:47:00;;;;;;;50.73;26.90;;;;;;;8.96;75.24;99729.38;4174372;28;20242;-67
2022/05/03 01:52:42;;;;;;;53.47;28.23;;;;;;;8.71;76.80;99729.16;4193599;28;20232;-66
2022/05/03 01:55:16;;;;;;;60.23;29.00;;;;;;;8.59;77.32;99725.88;4270448;28;20233;-67
2022/05/03 01:58:27;;;;;;;47.50;27.23;;;;;;;8.53;77.54;99723.00;4196432;28;20244;-66
2022/05/03 02:01:20;;;;;;;57.10;26.83;;;;;;;8.63;77.12;99724.56;4180438;28;20240;-66
2022/05/03 02:03:53;;;;;;;55.70;27.07;;;;;;;8.60;77.33;99734.66;4182655;28;20397;-66
2022/05/03 02:06:34;;;;;;;48.73;26.40;;;;;;;8.59;77.56;99736.50;4196068;28;22975;-66
2022/05/03 02:09:04;;;;;;;52.00;28.30;;;;;;;8.60;77.52;99735.50;4185975;28;21896;-68
2022/05/03 02:11:46;;;;;;;46.67;26.50;;;;;;;8.57;77.20;99732.28;4174415;28;21975;-67
2022/05/03 02:17:06;;;;;;;46.87;26.10;;;;;;;8.42;78.28;99745.22;4185899;28;21536;-68
2022/05/03 02:19:40;;;;;;;49.67;26.20;;;;;;;8.44;77.16;99730.84;4176532;28;20323;-65
2022/05/03 02:22:26;;;;;;;58.63;27.00;;;;;;;8.45;77.11;99734.31;4175887;28;22985;-66
2022/05/03 02:25:20;;;;;;;50.67;26.17;;;;;;;8.45;77.45;99743.13;4177043;28;20356;-68
2022/05/03 02:27:53;;;;;;;44.10;25.00;;;;;;;8.48;76.66;99730.56;4179897;28;20232;-66
2022/05/03 02:30:20;;;;;;;48.23;23.30;;;;;;;8.44;77.45;99746.75;4165538;28;21354;-66
2022/05/03 02:33:05;;;;;;;43.80;24.37;;;;;;;8.45;76.97;99732.53;4165283;28;21748;-67
2022/05/03 02:35:34;;;;;;;57.40;27.87;;;;;;;8.39;76.65;99737.56;4176427;28;25095;-68
2022/05/03 02:38:05;;;;;;;52.43;25.80;;;;;;;8.38;76.84;99738.53;4187239;28;20294;-66
2022/05/03 02:40:33;;;;;;;38.90;22.80;;;;;;;8.42;75.54;99738.09;4194466;28;20307;-66
2022/05/03 02:43:00;;;;;;;31.73;18.20;;;;;;;8.33;74.63;99744.25;4185883;28;22524;-66
2022/05/03 02:45:29;;;;;;;35.87;19.17;;;;;;;8.27;75.42;99733.44;4196815;28;20260;-66
2022/05/03 02:48:17;;;;;;;32.60;18.00;;;;;;;8.20;75.35;99735.84;4196469;28;20245;-66
2022/05/03 02:51:02;;;;;;;36.03;19.10;;;;;;;8.27;74.66;99744.03;4178398;28;21367;-67
2022/05/03 02:53:51;;;;;;;37.10;19.30;;;;;;;8.24;74.19;99745.16;4188776;28;20251;-66
2022/05/03 02:56:22;;;;;;;35.50;18.60;;;;;;;8.14;74.93;99741.72;4186297;28;20389;-67
2022/05/03 02:58:57;;;;;;;33.83;16.73;;;;;;;8.08;74.96;99742.28;4193825;28;21181;-67
2022/05/03 03:01:47;;;;;;;35.50;17.50;;;;;;;8.03;75.46;99748.06;4193609;28;20780;-66
2022/05/03 03:04:36;;;;;;;35.40;17.80;;;;;;;7.98;74.96;99744.97;4205026;28;21360;-66
2022/05/03 03:07:04;;;;;;;35.43;17.87;;;;;;;8.11;74.79;99744.66;4187131;28;20449;-66
2022/05/03 03:09:49;;;;;;;32.30;15.30;;;;;;;8.15;73.16;99746.88;4194636;28;23554;-66
2022/05/03 03:12:39;;;;;;;27.67;13.73;;;;;;;8.22;72.19;99741.84;4185976;28;20882;-66
2022/05/03 03:15:08;;;;;;;25.60;13.63;;;;;;;8.10;73.01;99748.28;4234831;28;20230;-66
2022/05/03 03:17:38;;;;;;;27.37;12.63;;;;;;;8.06;72.82;99742.47;4226377;28;20229;-66
2022/05/03 03:20:07;;;;;;;25.83;13.30;;;;;;;8.09;71.57;99746.63;4204970;28;21759;-66
2022/05/03 03:22:42;;;;;;;22.70;12.87;;;;;;;7.98;72.93;99751.13;4194138;28;20300;-66
2022/05/03 03:25:10;;;;;;;26.07;12.40;;;;;;;7.93;73.02;99752.53;4213465;28;21633;-68
2022/05/03 03:27:38;;;;;;;27.80;13.90;;;;;;;7.84;74.11;99751.56;4204370;28;22337;-66
2022/05/03 03:30:06;;;;;;;31.80;14.47;;;;;;;7.84;74.96;99759.53;4208405;28;20244;-66
2022/05/03 03:32:36;;;;;;;23.80;13.20;;;;;;;7.95;74.55;99750.56;4210481;28;21221;-67
2022/05/03 03:35:03;;;;;;;31.83;13.83;;;;;;;7.93;73.85;99748.06;4212878;28;21542;-66
2022/05/03 03:37:33;;;;;;;31.60;15.37;;;;;;;7.96;74.19;99757.53;4214205;28;20244;-66
2022/05/03 03:40:04;;;;;;;26.73;13.43;;;;;;;8.07;74.00;99759.19;4170884;28;20959;-67
2022/05/03 03:42:31;;;;;;;28.10;14.23;;;;;;;8.18;73.30;99756.34;4190554;28;20285;-67
2022/05/03 03:45:02;;;;;;;24.93;13.13;;;;;;;8.17;73.79;99762.63;4175824;28;20640;-66
2022/05/03 03:47:30;;;;;;;34.33;15.07;;;;;;;8.21;73.18;99764.81;4182439;28;20248;-67
2022/05/03 03:49:57;;;;;;;25.37;13.63;;;;;;;8.30;73.18;99760.47;4178112;28;20249;-68
2022/05/03 03:52:25;;;;;;;26.80;13.70;;;;;;;8.28;73.27;99757.13;4179256;28;20407;-68
2022/05/03 03:54:57;;;;;;;28.27;14.43;;;;;;;8.18;72.99;99766.94;4173297;28;20230;-67
2022/05/03 03:57:31;;;;;;;27.47;13.67;;;;;;;8.01;73.68;99756.13;4172508;28;20235;-66
2022/05/03 03:59:59;;;;;;;30.10;13.60;;;;;;;8.14;73.13;99757.63;4191405;28;23189;-67
2022/05/03 04:02:26;;;;;;;25.93;13.13;;;;;;;8.10;73.63;99759.75;4176021;28;20305;-66
2022/05/03 04:04:54;;;;;;;28.93;13.37;;;;;;;8.25;72.94;99773.34;4198840;28;20320;-66
2022/05/03 04:07:23;;;;;;;30.30;14.13;;;;;;;8.25;73.18;99762.72;4176031;28;20233;-67
2022/05/03 04:09:49;;;;;;;29.97;14.20;;;;;;;8.14;72.86;99768.22;4173862;28;21599;-67
2022/05/03 04:12:20;;;;;;;23.57;13.17;;;;;;;8.14;73.67;99758.44;4183012;28;20246;-65
2022/05/03 04:14:47;;;;;;;21.70;12.73;;;;;;;8.17;73.75;99778.50;4204928;28;20240;-65
2022/05/03 04:17:14;;;;;;;30.63;13.47;;;;;;;8.08;73.70;99766.13;4179164;28;21223;-67
2022/05/03 04:19:41;;;;;;;24.23;13.53;;;;;;;8.08;73.71;99779.38;4183857;28;20251;-66
2022/05/03 04:22:28;;;;;;;23.67;13.50;;;;;;;7.96;73.86;99784.03;4185781;28;20289;-67
2022/05/03 04:24:58;;;;;;;28.07;12.90;;;;;;;7.99;74.00;99783.75;4204413;28;20306;-66
2022/05/03 04:27:26;;;;;;;21.43;11.53;;;;;;;8.24;72.90;99784.91;4182664;28;21151;-66
2022/05/03 04:29:53;;;;;;;24.33;12.03;;;;;;;8.40;72.43;99787.78;4183701;28;20300;-66
2022/05/03 04:32:21;;;;;;;28.07;11.53;;;;;;;8.52;71.73;99783.16;4188978;28;26253;-67
2022/05/03 04:34:48;;;;;;;19.10;11.27;;;;;;;8.55;70.57;99787.31;4171833;28;20246;-67
2022/05/03 04:37:15;;;;;;;22.17;10.80;;;;;;;8.63;70.93;99792.72;4160213;28;20421;-67
2022/05/03 04:39:41;;;;;;;19.90;10.77;;;;;;;8.75;69.95;99791.50;4178613;28;20234;-68
2022/05/03 04:42:08;;;;;;;17.10;9.73;;;;;;;8.71;69.07;99784.84;4181913;28;20242;-66
2022/05/03 04:44:35;;;;;;;17.67;9.60;;;;;;;8.98;67.87;99783.97;4165928;28;20244;-72
2022/05/03 04:47:02;;;;;;;18.10;8.53;;;;;;;9.19;66.78;99794.28;4177670;28;20297;-67
2022/05/03 04:49:29;;;;;;;17.53;8.97;;;;;;;9.23;66.19;99787.69;4161415;28;20238;-66
2022/05/03 04:51:58;;;;;;;17.17;8.53;;;;;;;9.45;64.80;99798.81;4161953;28;22941;-65
2022/05/03 04:54:25;;;;;;;16.47;8.57;;;;;;;9.50;64.72;99801.84;4165535;28;20629;-63
2022/05/03 04:57:01;;;;;;;16.73;9.00;;;;;;;9.68;63.56;99804.47;4183424;28;20241;-67
2022/05/03 04:59:28;;;;;;;16.03;8.37;;;;;;;9.55;63.53;99804.88;4165335;28;20266;-67
2022/05/03 05:01:55;;;;;;;17.67;7.90;;;;;;;9.76;62.20;99809.00;4164400;28;20260;-67
2022/05/03 05:04:24;;;;;;;17.70;7.93;;;;;;;9.64;61.81;99808.44;4166870;28;20242;-67
2022/05/03 05:06:51;;;;;;;14.90;8.07;;;;;;;9.84;62.14;99803.78;4160175;28;20233;-68
2022/05/03 05:09:19;;;;;;;12.53;7.33;;;;;;;9.91;61.72;99810.13;4156214;28;21791;-66
2022/05/03 05:11:46;;;;;;;14.07;6.70;;;;;;;9.99;58.83;99807.50;4169599;28;20231;-67
2022/05/03 05:14:12;;;;;;;14.23;5.93;;;;;;;10.18;56.92;99813.59;4165614;28;20227;-65
2022/05/03 05:16:39;;;;;;;12.80;5.73;;;;;;;10.13;57.50;99817.56;4170994;28;20226;-69
2022/05/03 05:19:05;;;;;;;11.23;5.70;;;;;;;10.14;56.86;99810.44;4171596;28;20368;-65
2022/05/03 05:21:32;;;;;;;11.03;6.10;;;;;;;10.34;55.83;99816.38;4177656;28;20662;-67
2022/05/03 05:24:00;;;;;;;9.10;4.40;;;;;;;10.34;52.32;99819.03;4171117;28;20240;-67
2022/05/03 05:26:26;;;;;;;8.17;4.80;;;;;;;10.43;52.60;99825.25;4175285;28;20230;-67
2022/05/03 05:28:53;;;;;;;11.47;4.60;;;;;;;10.51;53.20;99818.16;4173266;28;20238;-67
2022/05/03 05:31:20;;;;;;;12.33;5.53;;;;;;;10.68;52.53;99813.72;4186597;28;20617;-66
2022/05/03 05:33:46;;;;;;;11.97;4.93;;;;;;;10.90;51.88;99819.44;4179306;28;20990;-66
2022/05/03 05:36:13;;;;;;;17.37;4.67;;;;;;;10.84;52.11;99823.59;4182488;28;20232;-67
2022/05/03 05:38:39;;;;;;;8.27;4.87;;;;;;;10.82;52.30;99820.25;4198348;28;21939;-68
2022/05/03 05:41:13;;;;;;;9.23;4.93;;;;;;;10.81;51.61;99821.22;4186639;28;21169;-67
2022/05/03 05:43:40;;;;;;;11.70;4.70;;;;;;;11.07;52.06;99817.63;4196172;28;20813;-68
2022/05/03 05:46:07;;;;;;;9.60;3.73;;;;;;;11.27;49.60;99813.69;4195166;28;20483;-68
2022/05/03 05:48:33;;;;;;;8.40;4.00;;;;;;;11.34;49.85;99824.50;4172151;28;20233;-67
2022/05/03 05:51:00;;;;;;;9.20;4.30;;;;;;;11.27;49.46;99823.50;4187186;28;20240;-68
2022/05/03 05:53:32;;;;;;;7.47;3.67;;;;;;;11.58;48.63;99821.03;4204698;28;20237;-67
2022/05/03 05:56:04;;;;;;;8.03;3.90;;;;;;;11.91;47.56;99831.69;4190765;28;20277;-68
2022/05/03 05:58:31;;;;;;;6.23;3.43;;;;;;;12.80;46.13;99843.13;4181170;28;20320;-65
2022/05/03 06:00:58;;;;;;;7.70;3.93;;;;;;;13.93;41.32;99846.06;4191763;28;23072;-65
2022/05/03 06:03:26;;;;;;;6.70;3.33;;;;;;;14.92;39.00;99850.34;4224199;28;20233;-65
2022/05/03 06:05:52;;;;;;;6.93;3.23;;;;;;;15.55;37.04;99851.44;4175430;28;21383;-65
2022/05/03 06:08:19;;;;;;;7.97;2.87;;;;;;;16.19;35.38;99857.78;4212689;28;20225;-66
2022/05/03 06:10:49;;;;;;;4.90;2.80;;;;;;;16.56;34.93;99871.84;4202964;28;21591;-66
2022/05/03 06:13:16;;;;;;;7.00;3.07;;;;;;;17.22;32.58;99880.22;4198601;28;20643;-64
2022/05/03 06:15:43;;;;;;;5.47;2.97;;;;;;;17.78;31.65;99883.66;4208942;28;22374;-66
2022/05/03 06:18:10;;;;;;;5.47;2.77;;;;;;;18.08;31.45;99878.75;4210869;28;20239;-66
2022/05/03 06:20:36;;;;;;;5.13;2.47;;;;;;;18.06;30.77;99875.44;4210579;28;21126;-66
2022/05/03 06:23:09;;;;;;;7.00;2.60;;;;;;;18.88;30.28;99890.22;4200424;28;21806;-69
2022/05/03 06:25:36;;;;;;;6.07;2.70;;;;;;;18.72;29.66;99883.38;4184986;28;20319;-68
2022/05/03 06:28:03;;;;;;;8.07;2.60;;;;;;;18.77;29.13;99877.41;4197627;28;20233;-67
2022/05/03 06:30:31;;;;;;;6.17;2.30;;;;;;;19.15;28.37;99885.56;4195939;28;21175;-67
2022/05/03 06:32:58;;;;;;;5.67;2.47;;;;;;;19.70;27.55;99893.16;4221643;28;20325;-64
2022/05/03 06:35:24;;;;;;;7.37;2.90;;;;;;;19.22;28.63;99880.09;4210459;28;21237;-67
2022/05/03 06:37:51;;;;;;;7.23;2.77;;;;;;;20.31;27.21;99894.31;4192776;28;20324;-67
2022/05/03 06:40:17;;;;;;;8.00;2.40;;;;;;;22.46;24.40;99899.44;4202703;28;20322;-68
2022/05/03 06:42:44;;;;;;;7.63;2.30;;;;;;;22.95;23.76;99902.66;4172503;28;20279;-72
2022/05/03 06:45:11;;;;;;;5.00;2.70;;;;;;;22.66;23.95;99908.00;4173205;28;20239;-66
2022/05/03 06:47:44;;;;;;;11.83;2.73;;;;;;;22.76;23.50;99904.72;4192871;28;21789;-67
2022/05/03 06:50:11;;;;;;;4.57;2.40;;;;;;;22.12;23.92;99901.84;4192850;28;22981;-68
2022/05/03 06:52:38;;;;;;;8.60;2.67;;;;;;;21.99;24.40;99908.31;4176416;28;23311;-67
2022/05/03 06:55:05;;;;;;;5.43;2.80;;;;;;;22.51;23.32;99911.19;4199207;28;21687;-70
2022/05/03 06:57:32;;;;;;;7.20;2.80;;;;;;;21.39;24.46;99908.31;4214202;28;20285;-70
2022/05/03 07:00:05;;;;;;;6.37;2.80;;;;;;;20.71;25.61;99895.84;4176284;28;20230;-68
2022/05/03 07:02:32;;;;;;;5.17;2.50;;;;;;;20.76;26.11;99895.97;4175053;28;20239;-67
2022/05/03 07:04:59;;;;;;;10.47;3.10;;;;;;;20.90;25.36;99908.31;4196406;28;20233;-67
2022/05/03 07:07:27;;;;;;;5.33;2.30;;;;;;;21.48;24.80;99910.50;4173513;28;20331;-66
2022/05/03 07:09:54;;;;;;;8.27;2.70;;;;;;;22.96;23.35;99915.16;4179480;28;21193;-67
2022/05/03 07:12:21;;;;;;;6.93;2.50;;;;;;;22.44;23.08;99915.09;4193327;28;22982;-67
2022/05/03 07:14:48;;;;;;;6.83;2.90;;;;;;;22.83;22.77;99916.25;4183445;28;20418;-67
2022/05/03 07:22:45;;;;;;;5.33;2.57;;;;;;;23.60;21.66;99924.06;4184806;28;21193;-68
2022/05/03 07:23:11;;;;;;;4.03;2.63;;;;;;;23.20;22.14;99915.13;4185448;28;20229;-70
2022/05/03 07:25:38;;;;;;;4.63;2.50;;;;;;;23.88;21.91;99921.56;4144402;28;20240;-65
2022/05/03 07:28:05;;;;;;;7.17;2.60;;;;;;;23.68;21.20;99932.88;4175540;28;21183;-67
2022/05/03 07:30:33;;;;;;;9.40;2.57;;;;;;;23.88;21.01;99925.13;4201881;28;22437;-65
2022/05/03 07:33:00;;;;;;;5.60;2.37;;;;;;;23.80;20.84;99933.69;4173873;28;20242;-68
2022/05/03 07:35:26;;;;;;;7.60;2.70;;;;;;;22.70;22.55;99921.91;4176516;28;20233;-67
2022/05/03 07:37:53;;;;;;;4.80;2.30;;;;;;;23.29;22.54;99924.53;4203589;28;20418;-64
2022/05/03 07:40:20;;;;;;;9.27;2.40;;;;;;;22.97;22.83;99916.81;4208924;28;20241;-67
2022/05/03 07:42:47;;;;;;;5.17;2.60;;;;;;;23.07;22.45;99925.19;4196630;28;20235;-70
2022/05/03 07:45:15;;;;;;;5.03;2.17;;;;;;;22.13;23.08;99923.28;4249345;28;20910;-70
2022/05/03 07:47:42;;;;;;;5.40;2.90;;;;;;;20.55;25.06;99911.56;4224063;28;22002;-70
2022/05/03 07:50:09;;;;;;;5.73;2.80;;;;;;;19.46;26.81;99912.81;4222239;28;20248;-66
2022/05/03 07:52:36;;;;;;;7.10;2.70;;;;;;;19.24;27.47;99905.00;4229090;28;21516;-69
2022/05/03 07:55:06;;;;;;;7.07;3.00;;;;;;;18.67;28.48;99904.75;4239763;28;20232;-68
2022/05/03 07:57:32;;;;;;;8.10;2.87;;;;;;;17.91;29.15;99899.84;4201370;28;20233;-77
2022/05/03 07:59:59;;;;;;;6.33;2.70;;;;;;;17.46;30.64;99905.75;4210101;28;20587;-69
2022/05/03 08:02:26;;;;;;;6.73;3.17;;;;;;;17.05;30.38;99905.81;4200952;28;20318;-71
2022/05/03 08:04:54;;;;;;;9.33;2.87;;;;;;;16.91;31.47;99894.19;4204138;28;20238;-68
2022/05/03 08:07:21;;;;;;;6.13;2.50;;;;;;;17.14;31.06;99899.25;4201823;28;26122;-68
2022/05/03 08:09:52;;;;;;;4.83;2.80;;;;;;;17.21;31.06;99907.34;4212548;28;20298;-70
2022/05/03 08:12:21;;;;;;;8.13;2.87;;;;;;;17.68;30.92;99906.44;4206362;28;25398;-67
2022/05/03 08:14:47;;;;;;;5.77;3.37;;;;;;;17.55;30.40;99905.56;4207684;28;21223;-66
2022/05/03 08:17:14;;;;;;;10.20;3.03;;;;;;;17.91;30.21;99900.69;4212888;28;21833;-66
2022/05/03 08:19:41;;;;;;;5.53;2.63;;;;;;;17.55;30.29;99908.25;4217761;28;20235;-66
2022/05/03 08:22:07;;;;;;;7.60;3.30;;;;;;;17.49;29.90;99912.59;4201941;28;20292;-69
2022/05/03 08:24:34;;;;;;;5.47;3.37;;;;;;;17.50;30.62;99912.38;4202610;28;20249;-66
2022/05/03 08:27:02;;;;;;;6.80;3.03;;;;;;;17.44;30.20;99909.66;4214976;28;20854;-68
2022/05/03 08:29:31;;;;;;;5.07;2.90;;;;;;;17.26;30.63;99913.75;4204568;28;20236;-67
2022/05/03 08:32:01;;;;;;;9.30;3.53;;;;;;;17.12;30.91;99917.44;4206024;28;20422;-68
2022/05/03 08:34:29;;;;;;;7.53;3.20;;;;;;;17.18;31.60;99908.53;4216044;28;20512;-65
2022/05/03 08:42:29;;;;;;;8.97;3.47;;;;;;;16.92;31.90;99913.81;4196866;28;22372;-68
2022/05/03 08:45:01;;;;;;;7.77;2.70;;;;;;;17.08;31.97;99913.47;4196749;28;20307;-66
2022/05/03 08:47:28;;;;;;;6.43;3.07;;;;;;;17.21;31.46;99900.09;4202442;28;20317;-66
2022/05/03 08:50:15;;;;;;;5.57;2.90;;;;;;;17.02;31.43;99914.28;4193150;28;23074;-67
2022/05/03 08:52:50;;;;;;;4.03;2.80;;;;;;;17.35;30.64;99913.56;4204923;28;20892;-69
2022/05/03 08:55:17;;;;;;;7.87;3.17;;;;;;;16.92;31.93;99905.75;4230426;28;22522;-67
2022/05/03 08:57:46;;;;;;;15.07;2.90;;;;;;;17.00;31.65;99903.75;4242649;28;22259;-67
2022/05/03 09:00:13;;;;;;;6.77;3.20;;;;;;;17.37;31.13;99906.13;4202423;28;20273;-70
2022/05/03 09:02:53;;;;;;;6.33;2.90;;;;;;;17.37;31.44;99906.13;4196823;28;20316;-67
2022/05/03 09:05:22;;;;;;;6.17;3.27;;;;;;;16.57;33.33;99895.00;4181958;28;20243;-66
2022/05/03 09:08:04;;;;;;;7.03;2.80;;;;;;;16.89;32.38;99901.63;4188411;28;20234;-67
2022/05/03 09:10:33;;;;;;;7.17;3.17;;;;;;;16.99;31.67;99895.88;4157421;28;20242;-69
2022/05/03 09:13:22;;;;;;;5.53;3.00;;;;;;;16.97;31.55;99889.84;4188921;28;20297;-67
2022/05/03 09:15:51;;;;;;;10.57;2.93;;;;;;;16.90;31.62;99899.75;4194413;28;21001;-66
2022/05/03 09:18:26;;;;;;;7.43;3.30;;;;;;;16.71;32.15;99888.66;4186283;28;20241;-67
2022/05/03 09:23:51;;;;;;;12.03;3.23;;;;;;;17.04;32.08;99893.41;4185109;28;23752;-70
2022/05/03 09:26:23;;;;;;;9.00;2.77;;;;;;;16.88;32.77;99889.22;4161950;28;20636;-69
2022/05/03 09:29:08;;;;;;;7.63;2.87;;;;;;;16.99;32.26;99885.13;4197699;28;20830;-69
2022/05/03 09:31:35;;;;;;;7.73;2.77;;;;;;;17.13;31.90;99884.13;4196136;28;21100;-68
2022/05/03 09:34:05;;;;;;;7.33;2.90;;;;;;;17.08;32.79;99889.28;4183873;28;25981;-68
2022/05/03 09:36:48;;;;;;;4.67;2.37;;;;;;;17.30;31.96;99888.13;4179787;28;22976;-67
2022/05/03 09:39:34;;;;;;;5.60;3.10;;;;;;;17.07;32.13;99885.78;4189738;28;22137;-68
2022/05/03 09:42:06;;;;;;;4.47;2.90;;;;;;;16.73;31.03;99881.22;4181165;28;20230;-67
2022/05/03 09:44:36;;;;;;;6.90;2.90;;;;;;;16.64;31.87;99877.06;4185292;28;20233;-72
2022/05/03 09:47:10;;;;;;;6.77;3.00;;;;;;;16.34;32.97;99874.63;4194942;28;21660;-68
2022/05/03 09:49:41;;;;;;;8.27;2.97;;;;;;;16.63;31.82;99880.78;4181582;28;20309;-68
2022/05/03 09:52:29;;;;;;;5.70;2.53;;;;;;;16.52;32.17;99867.91;4187431;28;20662;-69
2022/05/03 09:55:07;;;;;;;4.97;2.90;;;;;;;16.53;33.23;99865.03;4203552;28;20245;-68
2022/05/03 09:57:39;;;;;;;5.57;3.03;;;;;;;16.95;31.92;99873.09;4186595;28;20889;-66
2022/05/03 10:00:08;;;;;;;4.77;2.60;;;;;;;16.91;31.62;99874.53;4190402;28;21227;-74
2022/05/03 10:02:40;;;;;;;5.53;2.17;;;;;;;17.32;32.32;99871.78;4188850;28;21570;-67
2022/05/03 10:05:12;;;;;;;9.60;2.90;;;;;;;17.19;31.63;99866.38;4189905;28;20244;-69
2022/05/03 10:07:43;;;;;;;10.10;2.90;;;;;;;16.78;31.84;99876.09;4197843;28;20279;-68
2022/05/03 10:10:10;;;;;;;7.17;2.93;;;;;;;16.71;33.41;99882.47;4186929;28;20296;-69
2022/05/03 10:12:37;;;;;;;5.47;2.90;;;;;;;16.56;31.95;99866.47;4185453;28;20291;-66
2022/05/03 10:15:05;;;;;;;7.23;2.97;;;;;;;16.71;32.04;99872.53;4218569;28;20238;-66
2022/05/03 10:20:39;;;;;;;6.67;2.73;;;;;;;16.99;32.84;99877.03;4194025;28;20235;-69
2022/05/03 10:23:20;;;;;;;6.60;2.63;;;;;;;16.80;32.84;99881.31;4181634;28;20998;-68
2022/05/03 10:25:46;;;;;;;7.73;2.63;;;;;;;16.49;33.77;99873.69;4179944;28;20241;-66
2022/05/03 10:28:14;;;;;;;4.83;2.20;;;;;;;16.29;33.75;99862.78;4197691;28;20361;-69
2022/05/03 10:31:05;;;;;;;8.27;2.70;;;;;;;16.48;35.00;99877.38;4171784;28;21887;-69
2022/05/03 10:33:31;;;;;;;6.83;2.30;;;;;;;16.89;32.75;99869.34;4212039;28;23012;-67
2022/05/03 10:36:00;;;;;;;6.00;2.60;;;;;;;16.93;33.61;99877.84;4205843;28;20234;-68
2022/05/03 10:38:43;;;;;;;4.67;2.53;;;;;;;17.24;33.01;99871.97;4185612;28;20358;-74
2022/05/03 10:41:11;;;;;;;6.80;2.43;;;;;;;17.14;32.68;99876.88;4200315;28;20377;-72
2022/05/03 10:43:38;;;;;;;6.93;2.50;;;;;;;17.03;31.95;99886.38;4179977;28;20240;-73
2022/05/03 10:46:13;;;;;;;4.77;2.23;;;;;;;16.51;32.32;99877.81;4223105;28;20449;-68
2022/05/03 10:48:43;;;;;;;7.63;2.40;;;;;;;16.54;32.33;99871.22;4167396;28;22338;-68
2022/05/03 10:51:12;;;;;;;9.40;2.50;;;;;;;16.52;33.41;99878.63;4173729;28;20552;-68
2022/05/03 10:53:41;;;;;;;5.00;2.30;;;;;;;16.66;33.58;99875.00;4194461;28;21180;-69
2022/05/03 10:56:08;;;;;;;4.57;2.67;;;;;;;16.42;33.34;99866.41;4228070;28;20530;-69
2022/05/03 10:58:37;;;;;;;5.03;2.43;;;;;;;16.48;32.94;99872.00;4193282;28;21716;-68
2022/05/03 11:01:09;;;;;;;9.30;2.50;;;;;;;16.26;33.99;99869.38;4191462;28;20900;-68
2022/05/03 11:03:41;;;;;;;8.43;2.60;;;;;;;16.12;34.14;99875.69;4184338;28;22014;-68
2022/05/03 11:06:23;;;;;;;4.80;2.40;;;;;;;16.22;33.81;99862.75;4195470;28;20226;-67
2022/05/03 11:11:42;;;;;;;7.17;2.90;;;;;;;16.73;32.91;99870.50;4213491;28;20244;-67
2022/05/03 11:14:19;;;;;;;6.73;2.97;;;;;;;16.40;32.98;99865.75;4209709;28;20241;-68
2022/05/03 11:16:47;;;;;;;5.40;2.67;;;;;;;16.19;34.48;99857.78;4202465;28;22232;-68
2022/05/03 11:19:15;;;;;;;7.83;2.80;;;;;;;15.96;34.74;99863.38;4212419;28;20547;-71
2022/05/03 11:21:43;;;;;;;5.30;3.10;;;;;;;15.99;34.13;99858.47;4198131;28;20297;-68
2022/05/03 11:24:20;;;;;;;6.53;3.03;;;;;;;16.29;34.19;99858.25;4197803;28;20237;-70
2022/05/03 11:26:48;;;;;;;12.77;3.47;;;;;;;16.17;34.18;99849.06;4215969;28;20658;-69
2022/05/03 11:29:15;;;;;;;6.70;3.70;;;;;;;16.36;34.36;99861.78;4166084;28;24945;-70
2022/05/03 11:31:48;;;;;;;5.93;3.70;;;;;;;16.81;33.39;99867.69;4203546;28;22000;-68
2022/05/03 11:34:17;;;;;;;8.83;3.80;;;;;;;17.00;33.77;99862.59;4190230;28;20234;-68
2022/05/03 11:36:50;;;;;;;7.43;3.97;;;;;;;17.03;32.80;99862.19;4191563;28;20434;-68
2022/05/03 11:39:17;;;;;;;9.83;3.70;;;;;;;17.13;33.25;99868.00;4190240;28;20286;-68
2022/05/03 11:41:47;;;;;;;5.33;3.60;;;;;;;17.45;32.21;99869.13;4175084;28;20250;-69
2022/05/03 11:44:15;;;;;;;6.70;3.43;;;;;;;17.24;32.18;99856.66;4206407;28;21129;-69
2022/05/03 11:46:43;;;;;;;21.60;4.27;;;;;;;17.14;31.93;99856.22;4238146;28;20286;-67
2022/05/03 11:49:13;;;;;;;6.63;3.20;;;;;;;17.07;32.53;99861.59;4205444;28;20281;-66
2022/05/03 11:57:26;;;;;;;11.10;3.10;;;;;;;17.39;33.26;99847.59;4178357;28;21737;-66
2022/05/03 11:59:58;;;;;;;8.90;2.90;;;;;;;17.59;32.17;99866.47;4187859;28;25642;-55
2022/05/03 12:02:33;;;;;;;4.10;2.97;;;;;;;17.55;32.20;99859.84;4197091;28;20234;-66
2022/05/03 12:05:02;;;;;;;7.27;3.03;;;;;;;17.28;32.21;99857.91;4219498;28;20263;-65
2022/05/03 12:07:36;;;;;;;6.20;2.80;;;;;;;17.17;32.97;99860.38;4210483;28;20280;-66
2022/05/03 12:10:19;;;;;;;5.23;2.67;;;;;;;16.83;33.14;99860.25;4190897;28;22221;-65
2022/05/03 12:13:12;;;;;;;9.37;2.43;;;;;;;17.18;33.24;99854.78;4199099;28;20747;-67
2022/05/03 12:15:45;;;;;;;8.37;2.80;;;;;;;17.15;32.19;99855.19;4208933;28;20238;-69
2022/05/03 12:18:20;;;;;;;7.70;2.50;;;;;;;16.97;31.95;99860.28;4194747;28;20408;-66
2022/05/03 12:20:57;;;;;;;5.70;2.63;;;;;;;16.98;32.02;99852.03;4202768;28;22489;-67